sensor_id;sensor_type;location;lat;lon;timestamp;P1;durP1;ratioP1;P2;durP2;ratioP2
29570;SDS011;16814;52.118;11.436;2022-08-19T00:01:53;25.43;;;20.10;;
29570;SDS011;16814;52.118;11.436;2022-08-19T00:04:26;26.10;;;20.35;;
29570;SDS011;16814;52.118;11.436;2022-08-19T00:06:55;33.00;;;19.65;;
29570;SDS011;16814;52.118;11.436;2022-08-19T00:09:23;26.48;;;19.85;;
29570;SDS011;16814;52.118;11.436;2022-08-19T00:11:51;26.05;;;20.20;;
29570;SDS011;16814;52.118;11.436;2022-08-19T00:14:21;26.90;;;21.08;;
29570;SDS011;16814;52.118;11.436;2022-08-19T00:16:47;27.13;;;20.95;;
29570;SDS011;16814;52.118;11.436;2022-08-19T00:19:14;27.73;;;20.35;;
29570;SDS011;16814;52.118;11.436;2022-08-19T00:21:41;32.63;;;21.20;;
29570;SDS011;16814;52.118;11.436;2022-08-19T00:24:09;31.35;;;21.40;;
29570;SDS011;16814;52.118;11.436;2022-08-19T00:26:39;27.55;;;21.45;;
29570;SDS011;16814;52.118;11.436;2022-08-19T00:29:06;26.27;;;20.67;;
29570;SDS011;16814;52.118;11.436;2022-08-19T00:31:34;31.25;;;22.65;;
29570;SDS011;16814;52.118;11.436;2022-08-19T00:34:00;30.30;;;21.50;;
29570;SDS011;16814;52.118;11.436;2022-08-19T00:36:26;27.10;;;21.63;;
29570;SDS011;16814;52.118;11.436;2022-08-19T00:38:54;28.85;;;22.00;;
29570;SDS011;16814;52.118;11.436;2022-08-19T00:41:20;28.58;;;21.70;;
29570;SDS011;16814;52.118;11.436;2022-08-19T00:43:58;28.90;;;21.38;;
29570;SDS011;16814;52.118;11.436;2022-08-19T00:46:31;33.28;;;22.15;;
29570;SDS011;16814;52.118;11.436;2022-08-19T00:48:58;29.83;;;21.88;;
29570;SDS011;16814;52.118;11.436;2022-08-19T00:51:27;33.88;;;21.98;;
29570;SDS011;16814;52.118;11.436;2022-08-19T00:53:56;28.15;;;21.80;;
29570;SDS011;16814;52.118;11.436;2022-08-19T00:56:25;26.45;;;19.70;;
29570;SDS011;16814;52.118;11.436;2022-08-19T00:58:54;28.75;;;20.95;;
29570;SDS011;16814;52.118;11.436;2022-08-19T01:01:24;31.73;;;20.90;;
29570;SDS011;16814;52.118;11.436;2022-08-19T01:03:50;26.48;;;19.67;;
29570;SDS011;16814;52.118;11.436;2022-08-19T01:06:17;29.85;;;19.92;;
29570;SDS011;16814;52.118;11.436;2022-08-19T01:08:44;25.50;;;19.23;;
29570;SDS011;16814;52.118;11.436;2022-08-19T01:11:10;27.47;;;19.60;;
29570;SDS011;16814;52.118;11.436;2022-08-19T01:13:41;24.63;;;19.27;;
29570;SDS011;16814;52.118;11.436;2022-08-19T01:16:11;30.48;;;20.40;;
29570;SDS011;16814;52.118;11.436;2022-08-19T01:18:41;29.20;;;18.50;;
29570;SDS011;16814;52.118;11.436;2022-08-19T01:21:22;25.73;;;17.98;;
29570;SDS011;16814;52.118;11.436;2022-08-19T01:24:07;28.75;;;18.95;;
29570;SDS011;16814;52.118;11.436;2022-08-19T01:26:39;26.50;;;19.02;;
29570;SDS011;16814;52.118;11.436;2022-08-19T01:29:08;25.60;;;19.13;;
29570;SDS011;16814;52.118;11.436;2022-08-19T01:31:37;25.33;;;18.48;;
29570;SDS011;16814;52.118;11.436;2022-08-19T01:34:04;26.02;;;18.77;;
29570;SDS011;16814;52.118;11.436;2022-08-19T01:36:48;30.83;;;19.83;;
29570;SDS011;16814;52.118;11.436;2022-08-19T01:39:16;28.23;;;18.98;;
29570;SDS011;16814;52.118;11.436;2022-08-19T01:41:45;26.27;;;18.23;;
29570;SDS011;16814;52.118;11.436;2022-08-19T01:44:33;27.30;;;19.30;;
29570;SDS011;16814;52.118;11.436;2022-08-19T01:47:02;24.88;;;19.60;;
29570;SDS011;16814;52.118;11.436;2022-08-19T01:49:30;26.75;;;19.38;;
29570;SDS011;16814;52.118;11.436;2022-08-19T01:51:58;30.00;;;20.17;;
29570;SDS011;16814;52.118;11.436;2022-08-19T01:54:26;30.30;;;19.75;;
29570;SDS011;16814;52.118;11.436;2022-08-19T01:56:52;27.27;;;19.13;;
29570;SDS011;16814;52.118;11.436;2022-08-19T01:59:24;28.83;;;19.70;;
29570;SDS011;16814;52.118;11.436;2022-08-19T02:01:51;26.52;;;19.00;;
29570;SDS011;16814;52.118;11.436;2022-08-19T02:04:16;28.50;;;20.37;;
29570;SDS011;16814;52.118;11.436;2022-08-19T02:06:42;32.65;;;19.38;;
29570;SDS011;16814;52.118;11.436;2022-08-19T02:09:09;30.20;;;20.13;;
29570;SDS011;16814;52.118;11.436;2022-08-19T02:11:36;30.67;;;20.20;;
29570;SDS011;16814;52.118;11.436;2022-08-19T02:14:05;29.23;;;19.60;;
29570;SDS011;16814;52.118;11.436;2022-08-19T02:16:34;29.33;;;19.57;;
29570;SDS011;16814;52.118;11.436;2022-08-19T02:19:00;28.83;;;19.08;;
29570;SDS011;16814;52.118;11.436;2022-08-19T02:21:26;26.27;;;19.13;;
29570;SDS011;16814;52.118;11.436;2022-08-19T02:23:54;33.72;;;20.75;;
29570;SDS011;16814;52.118;11.436;2022-08-19T02:26:22;32.50;;;20.58;;
29570;SDS011;16814;52.118;11.436;2022-08-19T02:28:49;27.85;;;20.85;;
29570;SDS011;16814;52.118;11.436;2022-08-19T02:31:17;28.43;;;21.13;;
29570;SDS011;16814;52.118;11.436;2022-08-19T02:33:46;30.58;;;20.95;;
29570;SDS011;16814;52.118;11.436;2022-08-19T02:36:14;29.63;;;21.67;;
29570;SDS011;16814;52.118;11.436;2022-08-19T02:38:41;30.08;;;21.45;;
29570;SDS011;16814;52.118;11.436;2022-08-19T02:41:28;33.28;;;22.25;;
29570;SDS011;16814;52.118;11.436;2022-08-19T02:43:56;30.90;;;21.40;;
29570;SDS011;16814;52.118;11.436;2022-08-19T02:46:25;36.07;;;23.87;;
29570;SDS011;16814;52.118;11.436;2022-08-19T02:49:12;37.13;;;22.83;;
29570;SDS011;16814;52.118;11.436;2022-08-19T02:51:49;30.98;;;23.65;;
29570;SDS011;16814;52.118;11.436;2022-08-19T02:54:17;37.92;;;23.10;;
29570;SDS011;16814;52.118;11.436;2022-08-19T02:56:44;35.08;;;23.38;;
29570;SDS011;16814;52.118;11.436;2022-08-19T02:59:11;32.78;;;23.42;;
29570;SDS011;16814;52.118;11.436;2022-08-19T03:01:37;35.60;;;23.75;;
29570;SDS011;16814;52.118;11.436;2022-08-19T03:04:05;35.22;;;23.63;;
29570;SDS011;16814;52.118;11.436;2022-08-19T03:06:35;36.15;;;23.48;;
29570;SDS011;16814;52.118;11.436;2022-08-19T03:09:21;36.63;;;24.67;;
29570;SDS011;16814;52.118;11.436;2022-08-19T03:11:47;36.78;;;26.65;;
29570;SDS011;16814;52.118;11.436;2022-08-19T03:14:14;41.43;;;26.00;;
29570;SDS011;16814;52.118;11.436;2022-08-19T03:16:44;38.97;;;25.73;;
29570;SDS011;16814;52.118;11.436;2022-08-19T03:19:20;38.63;;;25.37;;
29570;SDS011;16814;52.118;11.436;2022-08-19T03:21:51;39.55;;;26.60;;
29570;SDS011;16814;52.118;11.436;2022-08-19T03:24:17;39.13;;;25.48;;
29570;SDS011;16814;52.118;11.436;2022-08-19T03:26:46;40.63;;;26.13;;
29570;SDS011;16814;52.118;11.436;2022-08-19T03:29:16;38.90;;;27.30;;
29570;SDS011;16814;52.118;11.436;2022-08-19T03:31:43;37.10;;;26.13;;
29570;SDS011;16814;52.118;11.436;2022-08-19T03:34:11;36.63;;;25.02;;
29570;SDS011;16814;52.118;11.436;2022-08-19T03:36:42;38.20;;;24.50;;
29570;SDS011;16814;52.118;11.436;2022-08-19T03:39:09;37.03;;;24.73;;
29570;SDS011;16814;52.118;11.436;2022-08-19T03:41:39;37.30;;;24.63;;
29570;SDS011;16814;52.118;11.436;2022-08-19T03:44:07;36.10;;;24.13;;
29570;SDS011;16814;52.118;11.436;2022-08-19T03:46:34;36.80;;;24.45;;
29570;SDS011;16814;52.118;11.436;2022-08-19T03:49:03;33.78;;;23.05;;
29570;SDS011;16814;52.118;11.436;2022-08-19T03:51:37;35.13;;;21.93;;
29570;SDS011;16814;52.118;11.436;2022-08-19T03:54:05;35.08;;;22.27;;
29570;SDS011;16814;52.118;11.436;2022-08-19T03:56:35;32.72;;;21.88;;
29570;SDS011;16814;52.118;11.436;2022-08-19T03:59:05;32.88;;;22.75;;
29570;SDS011;16814;52.118;11.436;2022-08-19T04:01:35;34.15;;;22.20;;
29570;SDS011;16814;52.118;11.436;2022-08-19T04:04:01;31.35;;;22.05;;
29570;SDS011;16814;52.118;11.436;2022-08-19T04:06:29;31.73;;;21.73;;
29570;SDS011;16814;52.118;11.436;2022-08-19T04:08:57;32.22;;;21.35;;
29570;SDS011;16814;52.118;11.436;2022-08-19T04:11:42;35.58;;;22.25;;
29570;SDS011;16814;52.118;11.436;2022-08-19T04:14:14;31.55;;;21.48;;
29570;SDS011;16814;52.118;11.436;2022-08-19T04:16:44;34.00;;;21.05;;
29570;SDS011;16814;52.118;11.436;2022-08-19T04:19:13;32.17;;;21.37;;
29570;SDS011;16814;52.118;11.436;2022-08-19T04:21:43;29.58;;;20.90;;
29570;SDS011;16814;52.118;11.436;2022-08-19T04:24:14;32.03;;;19.70;;
29570;SDS011;16814;52.118;11.436;2022-08-19T04:26:42;30.75;;;19.08;;
29570;SDS011;16814;52.118;11.436;2022-08-19T04:29:11;33.30;;;19.67;;
29570;SDS011;16814;52.118;11.436;2022-08-19T04:31:39;27.80;;;18.27;;
29570;SDS011;16814;52.118;11.436;2022-08-19T04:34:07;29.75;;;18.02;;
29570;SDS011;16814;52.118;11.436;2022-08-19T04:36:47;27.05;;;16.98;;
29570;SDS011;16814;52.118;11.436;2022-08-19T04:39:18;23.98;;;16.45;;
29570;SDS011;16814;52.118;11.436;2022-08-19T04:41:46;28.85;;;16.45;;
29570;SDS011;16814;52.118;11.436;2022-08-19T04:44:34;24.77;;;16.08;;
29570;SDS011;16814;52.118;11.436;2022-08-19T04:47:07;24.33;;;16.17;;
29570;SDS011;16814;52.118;11.436;2022-08-19T04:49:32;27.50;;;15.43;;
29570;SDS011;16814;52.118;11.436;2022-08-19T04:51:58;25.80;;;16.33;;
29570;SDS011;16814;52.118;11.436;2022-08-19T04:54:24;29.58;;;16.08;;
29570;SDS011;16814;52.118;11.436;2022-08-19T04:56:52;22.52;;;15.18;;
29570;SDS011;16814;52.118;11.436;2022-08-19T04:59:19;22.73;;;16.50;;
29570;SDS011;16814;52.118;11.436;2022-08-19T05:01:47;25.67;;;16.57;;
29570;SDS011;16814;52.118;11.436;2022-08-19T05:04:15;25.00;;;16.35;;
29570;SDS011;16814;52.118;11.436;2022-08-19T05:06:44;25.40;;;17.05;;
29570;SDS011;16814;52.118;11.436;2022-08-19T05:09:11;23.98;;;15.98;;
29570;SDS011;16814;52.118;11.436;2022-08-19T05:11:36;22.67;;;16.27;;
29570;SDS011;16814;52.118;11.436;2022-08-19T05:14:06;23.80;;;15.70;;
29570;SDS011;16814;52.118;11.436;2022-08-19T05:16:34;24.93;;;15.73;;
29570;SDS011;16814;52.118;11.436;2022-08-19T05:19:00;25.02;;;16.58;;
29570;SDS011;16814;52.118;11.436;2022-08-19T05:21:45;24.83;;;16.30;;
29570;SDS011;16814;52.118;11.436;2022-08-19T05:24:30;27.20;;;17.05;;
29570;SDS011;16814;52.118;11.436;2022-08-19T05:27:00;26.80;;;16.27;;
29570;SDS011;16814;52.118;11.436;2022-08-19T05:29:28;25.25;;;16.35;;
29570;SDS011;16814;52.118;11.436;2022-08-19T05:31:55;25.42;;;15.80;;
29570;SDS011;16814;52.118;11.436;2022-08-19T05:34:23;26.40;;;16.38;;
29570;SDS011;16814;52.118;11.436;2022-08-19T05:37:01;28.00;;;15.80;;
29570;SDS011;16814;52.118;11.436;2022-08-19T05:39:29;24.40;;;16.00;;
29570;SDS011;16814;52.118;11.436;2022-08-19T05:41:58;30.20;;;16.07;;
29570;SDS011;16814;52.118;11.436;2022-08-19T05:44:28;27.53;;;15.77;;
29570;SDS011;16814;52.118;11.436;2022-08-19T05:46:59;26.27;;;16.50;;
29570;SDS011;16814;52.118;11.436;2022-08-19T05:49:28;23.70;;;15.75;;
29570;SDS011;16814;52.118;11.436;2022-08-19T05:51:57;24.73;;;15.55;;
29570;SDS011;16814;52.118;11.436;2022-08-19T05:54:26;31.02;;;16.92;;
29570;SDS011;16814;52.118;11.436;2022-08-19T05:56:53;26.25;;;15.68;;
29570;SDS011;16814;52.118;11.436;2022-08-19T05:59:21;27.35;;;15.32;;
29570;SDS011;16814;52.118;11.436;2022-08-19T06:01:50;27.13;;;15.85;;
29570;SDS011;16814;52.118;11.436;2022-08-19T06:04:19;22.05;;;15.00;;
29570;SDS011;16814;52.118;11.436;2022-08-19T06:06:47;21.40;;;14.82;;
29570;SDS011;16814;52.118;11.436;2022-08-19T06:09:16;24.93;;;15.50;;
29570;SDS011;16814;52.118;11.436;2022-08-19T06:11:46;22.75;;;15.18;;
29570;SDS011;16814;52.118;11.436;2022-08-19T06:14:23;26.40;;;16.30;;
29570;SDS011;16814;52.118;11.436;2022-08-19T06:16:54;21.85;;;15.38;;
29570;SDS011;16814;52.118;11.436;2022-08-19T06:19:21;25.45;;;15.50;;
29570;SDS011;16814;52.118;11.436;2022-08-19T06:21:50;23.98;;;14.90;;
29570;SDS011;16814;52.118;11.436;2022-08-19T06:24:23;27.17;;;15.30;;
29570;SDS011;16814;52.118;11.436;2022-08-19T06:27:02;24.85;;;16.02;;
29570;SDS011;16814;52.118;11.436;2022-08-19T06:29:28;25.58;;;16.17;;
29570;SDS011;16814;52.118;11.436;2022-08-19T06:31:56;28.05;;;15.65;;
29570;SDS011;16814;52.118;11.436;2022-08-19T06:34:23;28.42;;;17.05;;
29570;SDS011;16814;52.118;11.436;2022-08-19T06:36:53;26.95;;;15.75;;
29570;SDS011;16814;52.118;11.436;2022-08-19T06:39:23;22.08;;;15.45;;
29570;SDS011;16814;52.118;11.436;2022-08-19T06:41:51;31.73;;;16.50;;
29570;SDS011;16814;52.118;11.436;2022-08-19T06:44:21;23.70;;;15.15;;
29570;SDS011;16814;52.118;11.436;2022-08-19T06:46:54;24.30;;;16.17;;
29570;SDS011;16814;52.118;11.436;2022-08-19T06:49:22;25.92;;;17.08;;
29570;SDS011;16814;52.118;11.436;2022-08-19T06:51:49;29.40;;;16.83;;
29570;SDS011;16814;52.118;11.436;2022-08-19T06:54:18;23.67;;;15.52;;
29570;SDS011;16814;52.118;11.436;2022-08-19T06:56:44;23.77;;;15.95;;
29570;SDS011;16814;52.118;11.436;2022-08-19T06:59:29;24.60;;;16.10;;
29570;SDS011;16814;52.118;11.436;2022-08-19T07:01:58;29.38;;;15.93;;
29570;SDS011;16814;52.118;11.436;2022-08-19T07:04:28;26.60;;;16.23;;
29570;SDS011;16814;52.118;11.436;2022-08-19T07:07:05;25.70;;;16.80;;
29570;SDS011;16814;52.118;11.436;2022-08-19T07:09:35;27.25;;;17.45;;
29570;SDS011;16814;52.118;11.436;2022-08-19T07:12:04;24.77;;;16.57;;
29570;SDS011;16814;52.118;11.436;2022-08-19T07:14:32;28.38;;;16.27;;
29570;SDS011;16814;52.118;11.436;2022-08-19T07:17:03;32.20;;;18.63;;
29570;SDS011;16814;52.118;11.436;2022-08-19T07:19:30;25.80;;;17.23;;
29570;SDS011;16814;52.118;11.436;2022-08-19T07:21:57;29.58;;;17.08;;
29570;SDS011;16814;52.118;11.436;2022-08-19T07:24:28;28.73;;;17.80;;
29570;SDS011;16814;52.118;11.436;2022-08-19T07:26:56;30.10;;;17.07;;
29570;SDS011;16814;52.118;11.436;2022-08-19T07:29:32;29.90;;;17.63;;
29570;SDS011;16814;52.118;11.436;2022-08-19T07:32:00;38.55;;;18.48;;
29570;SDS011;16814;52.118;11.436;2022-08-19T07:34:28;27.85;;;17.50;;
29570;SDS011;16814;52.118;11.436;2022-08-19T07:36:54;28.02;;;16.83;;
29570;SDS011;16814;52.118;11.436;2022-08-19T07:39:24;28.63;;;17.73;;
29570;SDS011;16814;52.118;11.436;2022-08-19T07:41:53;27.63;;;17.93;;
29570;SDS011;16814;52.118;11.436;2022-08-19T07:44:20;32.35;;;18.88;;
29570;SDS011;16814;52.118;11.436;2022-08-19T07:46:49;28.40;;;18.70;;
29570;SDS011;16814;52.118;11.436;2022-08-19T07:49:20;30.70;;;19.58;;
29570;SDS011;16814;52.118;11.436;2022-08-19T07:51:53;31.70;;;19.35;;
29570;SDS011;16814;52.118;11.436;2022-08-19T07:54:30;33.03;;;19.60;;
29570;SDS011;16814;52.118;11.436;2022-08-19T07:56:58;33.30;;;19.63;;
29570;SDS011;16814;52.118;11.436;2022-08-19T07:59:27;31.60;;;19.13;;
29570;SDS011;16814;52.118;11.436;2022-08-19T08:01:55;29.35;;;18.67;;
29570;SDS011;16814;52.118;11.436;2022-08-19T08:04:25;32.15;;;17.80;;
29570;SDS011;16814;52.118;11.436;2022-08-19T08:07:11;26.48;;;17.45;;
29570;SDS011;16814;52.118;11.436;2022-08-19T08:09:56;32.15;;;17.00;;
29570;SDS011;16814;52.118;11.436;2022-08-19T08:12:24;29.23;;;17.52;;
29570;SDS011;16814;52.118;11.436;2022-08-19T08:14:55;25.23;;;15.57;;
29570;SDS011;16814;52.118;11.436;2022-08-19T08:17:25;23.53;;;14.90;;
29570;SDS011;16814;52.118;11.436;2022-08-19T08:19:53;23.08;;;15.30;;
29570;SDS011;16814;52.118;11.436;2022-08-19T08:22:22;26.77;;;15.47;;
29570;SDS011;16814;52.118;11.436;2022-08-19T08:25:13;24.70;;;15.00;;
29570;SDS011;16814;52.118;11.436;2022-08-19T08:27:44;22.17;;;14.17;;
29570;SDS011;16814;52.118;11.436;2022-08-19T08:30:14;24.33;;;14.90;;
29570;SDS011;16814;52.118;11.436;2022-08-19T08:32:45;24.65;;;15.68;;
29570;SDS011;16814;52.118;11.436;2022-08-19T08:35:13;25.60;;;14.50;;
29570;SDS011;16814;52.118;11.436;2022-08-19T08:37:43;23.90;;;15.50;;
29570;SDS011;16814;52.118;11.436;2022-08-19T08:42:57;23.70;;;15.85;;
29570;SDS011;16814;52.118;11.436;2022-08-19T08:45:48;24.80;;;15.75;;
29570;SDS011;16814;52.118;11.436;2022-08-19T08:48:24;21.60;;;15.77;;
29570;SDS011;16814;52.118;11.436;2022-08-19T08:51:09;24.77;;;16.03;;
29570;SDS011;16814;52.118;11.436;2022-08-19T08:53:39;22.53;;;15.60;;
29570;SDS011;16814;52.118;11.436;2022-08-19T08:56:11;25.35;;;16.35;;
29570;SDS011;16814;52.118;11.436;2022-08-19T08:58:47;25.50;;;16.80;;
29570;SDS011;16814;52.118;11.436;2022-08-19T09:01:20;22.30;;;16.55;;
29570;SDS011;16814;52.118;11.436;2022-08-19T09:03:47;26.55;;;15.73;;
29570;SDS011;16814;52.118;11.436;2022-08-19T09:06:23;23.65;;;16.48;;
29570;SDS011;16814;52.118;11.436;2022-08-19T09:09:14;26.70;;;16.88;;
29570;SDS011;16814;52.118;11.436;2022-08-19T09:14:49;26.27;;;16.95;;
29570;SDS011;16814;52.118;11.436;2022-08-19T09:17:23;29.25;;;17.25;;
29570;SDS011;16814;52.118;11.436;2022-08-19T09:20:21;24.27;;;17.58;;
29570;SDS011;16814;52.118;11.436;2022-08-19T09:22:51;27.35;;;18.17;;
29570;SDS011;16814;52.118;11.436;2022-08-19T09:25:19;29.23;;;17.83;;
29570;SDS011;16814;52.118;11.436;2022-08-19T09:27:49;27.25;;;17.90;;
29570;SDS011;16814;52.118;11.436;2022-08-19T09:30:23;26.20;;;17.38;;
29570;SDS011;16814;52.118;11.436;2022-08-19T09:32:50;26.40;;;16.65;;
29570;SDS011;16814;52.118;11.436;2022-08-19T09:35:23;27.97;;;16.63;;
29570;SDS011;16814;52.118;11.436;2022-08-19T09:37:51;28.77;;;16.35;;
29570;SDS011;16814;52.118;11.436;2022-08-19T09:40:19;25.92;;;16.67;;
29570;SDS011;16814;52.118;11.436;2022-08-19T09:42:46;26.23;;;16.75;;
29570;SDS011;16814;52.118;11.436;2022-08-19T09:45:15;22.93;;;16.13;;
29570;SDS011;16814;52.118;11.436;2022-08-19T09:47:49;26.42;;;15.85;;
29570;SDS011;16814;52.118;11.436;2022-08-19T09:50:17;22.77;;;15.30;;
29570;SDS011;16814;52.118;11.436;2022-08-19T09:52:45;26.02;;;17.35;;
29570;SDS011;16814;52.118;11.436;2022-08-19T09:55:17;24.02;;;16.50;;
29570;SDS011;16814;52.118;11.436;2022-08-19T09:57:42;26.83;;;16.47;;
29570;SDS011;16814;52.118;11.436;2022-08-19T10:00:10;24.23;;;16.13;;
29570;SDS011;16814;52.118;11.436;2022-08-19T10:02:36;24.23;;;15.80;;
29570;SDS011;16814;52.118;11.436;2022-08-19T10:05:04;27.83;;;16.52;;
29570;SDS011;16814;52.118;11.436;2022-08-19T10:07:54;27.05;;;17.42;;
29570;SDS011;16814;52.118;11.436;2022-08-19T10:10:34;24.27;;;16.00;;
29570;SDS011;16814;52.118;11.436;2022-08-19T10:13:01;24.45;;;15.82;;
29570;SDS011;16814;52.118;11.436;2022-08-19T10:15:30;28.48;;;16.65;;
29570;SDS011;16814;52.118;11.436;2022-08-19T10:17:57;26.25;;;16.40;;
29570;SDS011;16814;52.118;11.436;2022-08-19T10:20:25;23.30;;;15.57;;
29570;SDS011;16814;52.118;11.436;2022-08-19T10:22:51;24.30;;;15.95;;
29570;SDS011;16814;52.118;11.436;2022-08-19T10:25:18;29.30;;;16.83;;
29570;SDS011;16814;52.118;11.436;2022-08-19T10:27:44;33.90;;;17.30;;
29570;SDS011;16814;52.118;11.436;2022-08-19T10:30:13;29.98;;;17.13;;
29570;SDS011;16814;52.118;11.436;2022-08-19T10:32:38;28.67;;;17.08;;
29570;SDS011;16814;52.118;11.436;2022-08-19T10:35:04;28.75;;;17.85;;
29570;SDS011;16814;52.118;11.436;2022-08-19T10:37:35;30.08;;;17.48;;
29570;SDS011;16814;52.118;11.436;2022-08-19T10:40:05;31.27;;;17.53;;
29570;SDS011;16814;52.118;11.436;2022-08-19T10:42:34;32.95;;;18.40;;
29570;SDS011;16814;52.118;11.436;2022-08-19T10:45:02;28.73;;;17.30;;
29570;SDS011;16814;52.118;11.436;2022-08-19T10:47:31;29.08;;;16.70;;
29570;SDS011;16814;52.118;11.436;2022-08-19T10:49:59;29.88;;;16.85;;
29570;SDS011;16814;52.118;11.436;2022-08-19T10:52:49;26.02;;;16.73;;
29570;SDS011;16814;52.118;11.436;2022-08-19T10:55:15;27.17;;;16.30;;
29570;SDS011;16814;52.118;11.436;2022-08-19T10:58:13;31.70;;;16.67;;
29570;SDS011;16814;52.118;11.436;2022-08-19T11:00:42;23.77;;;15.70;;
29570;SDS011;16814;52.118;11.436;2022-08-19T11:03:09;30.15;;;16.00;;
29570;SDS011;16814;52.118;11.436;2022-08-19T11:05:35;27.75;;;15.10;;
29570;SDS011;16814;52.118;11.436;2022-08-19T11:08:03;24.00;;;14.85;;
29570;SDS011;16814;52.118;11.436;2022-08-19T11:10:29;21.27;;;14.00;;
29570;SDS011;16814;52.118;11.436;2022-08-19T11:12:56;22.48;;;14.07;;
29570;SDS011;16814;52.118;11.436;2022-08-19T11:15:21;23.95;;;14.73;;
29570;SDS011;16814;52.118;11.436;2022-08-19T11:17:51;24.13;;;13.95;;
29570;SDS011;16814;52.118;11.436;2022-08-19T11:20:18;20.30;;;13.35;;
29570;SDS011;16814;52.118;11.436;2022-08-19T11:22:49;22.75;;;13.43;;
29570;SDS011;16814;52.118;11.436;2022-08-19T11:25:18;22.05;;;13.00;;
29570;SDS011;16814;52.118;11.436;2022-08-19T11:27:45;23.13;;;13.00;;
29570;SDS011;16814;52.118;11.436;2022-08-19T11:30:17;20.15;;;12.07;;
29570;SDS011;16814;52.118;11.436;2022-08-19T11:32:44;20.88;;;11.88;;
29570;SDS011;16814;52.118;11.436;2022-08-19T11:35:11;20.20;;;12.05;;
29570;SDS011;16814;52.118;11.436;2022-08-19T11:37:38;20.42;;;12.15;;
29570;SDS011;16814;52.118;11.436;2022-08-19T11:40:07;18.27;;;12.38;;
29570;SDS011;16814;52.118;11.436;2022-08-19T11:42:36;20.15;;;12.32;;
29570;SDS011;16814;52.118;11.436;2022-08-19T11:45:21;16.25;;;11.93;;
29570;SDS011;16814;52.118;11.436;2022-08-19T11:47:49;26.05;;;14.45;;
29570;SDS011;16814;52.118;11.436;2022-08-19T11:50:15;19.43;;;12.33;;
29570;SDS011;16814;52.118;11.436;2022-08-19T11:52:41;21.38;;;10.98;;
29570;SDS011;16814;52.118;11.436;2022-08-19T11:55:10;16.37;;;10.90;;
29570;SDS011;16814;52.118;11.436;2022-08-19T11:57:39;18.15;;;10.68;;
29570;SDS011;16814;52.118;11.436;2022-08-19T12:00:09;19.98;;;10.90;;
29570;SDS011;16814;52.118;11.436;2022-08-19T12:02:37;17.70;;;10.07;;
29570;SDS011;16814;52.118;11.436;2022-08-19T12:05:05;17.85;;;10.90;;
29570;SDS011;16814;52.118;11.436;2022-08-19T12:07:31;14.23;;;9.98;;
29570;SDS011;16814;52.118;11.436;2022-08-19T12:10:00;16.90;;;10.50;;
29570;SDS011;16814;52.118;11.436;2022-08-19T12:12:27;15.75;;;9.82;;
29570;SDS011;16814;52.118;11.436;2022-08-19T12:14:54;19.48;;;10.13;;
29570;SDS011;16814;52.118;11.436;2022-08-19T12:17:27;17.25;;;9.70;;
29570;SDS011;16814;52.118;11.436;2022-08-19T12:19:54;16.80;;;9.97;;
29570;SDS011;16814;52.118;11.436;2022-08-19T12:22:20;14.40;;;9.63;;
29570;SDS011;16814;52.118;11.436;2022-08-19T12:24:47;14.77;;;9.88;;
29570;SDS011;16814;52.118;11.436;2022-08-19T12:27:17;18.70;;;10.27;;
29570;SDS011;16814;52.118;11.436;2022-08-19T12:29:44;15.55;;;10.23;;
29570;SDS011;16814;52.118;11.436;2022-08-19T12:32:12;16.47;;;9.43;;
29570;SDS011;16814;52.118;11.436;2022-08-19T12:34:40;19.33;;;10.40;;
29570;SDS011;16814;52.118;11.436;2022-08-19T12:37:08;14.65;;;10.27;;
29570;SDS011;16814;52.118;11.436;2022-08-19T12:39:35;19.50;;;12.03;;
29570;SDS011;16814;52.118;11.436;2022-08-19T12:42:03;19.85;;;11.45;;
29570;SDS011;16814;52.118;11.436;2022-08-19T12:44:30;16.77;;;11.33;;
29570;SDS011;16814;52.118;11.436;2022-08-19T12:46:58;18.42;;;11.73;;
29570;SDS011;16814;52.118;11.436;2022-08-19T12:49:26;16.27;;;11.10;;
29570;SDS011;16814;52.118;11.436;2022-08-19T12:51:54;14.40;;;10.63;;
29570;SDS011;16814;52.118;11.436;2022-08-19T12:54:22;16.85;;;11.23;;
29570;SDS011;16814;52.118;11.436;2022-08-19T12:56:50;19.63;;;12.38;;
29570;SDS011;16814;52.118;11.436;2022-08-19T12:59:15;22.80;;;12.57;;
29570;SDS011;16814;52.118;11.436;2022-08-19T13:01:43;20.83;;;12.82;;
29570;SDS011;16814;52.118;11.436;2022-08-19T13:04:10;18.27;;;12.60;;
29570;SDS011;16814;52.118;11.436;2022-08-19T13:06:37;15.40;;;11.43;;
29570;SDS011;16814;52.118;11.436;2022-08-19T13:09:03;17.33;;;11.43;;
29570;SDS011;16814;52.118;11.436;2022-08-19T13:11:29;15.02;;;11.02;;
29570;SDS011;16814;52.118;11.436;2022-08-19T13:13:59;14.17;;;10.10;;
29570;SDS011;16814;52.118;11.436;2022-08-19T13:16:32;17.58;;;9.57;;
29570;SDS011;16814;52.118;11.436;2022-08-19T13:19:00;12.70;;;9.52;;
29570;SDS011;16814;52.118;11.436;2022-08-19T13:21:30;12.17;;;8.60;;
29570;SDS011;16814;52.118;11.436;2022-08-19T13:23:58;13.52;;;8.63;;
29570;SDS011;16814;52.118;11.436;2022-08-19T13:26:24;14.30;;;8.52;;
29570;SDS011;16814;52.118;11.436;2022-08-19T13:28:51;12.88;;;8.55;;
29570;SDS011;16814;52.118;11.436;2022-08-19T13:31:40;13.93;;;8.32;;
29570;SDS011;16814;52.118;11.436;2022-08-19T13:34:31;13.73;;;7.50;;
29570;SDS011;16814;52.118;11.436;2022-08-19T13:37:02;12.50;;;8.20;;
29570;SDS011;16814;52.118;11.436;2022-08-19T13:39:29;10.45;;;7.07;;
29570;SDS011;16814;52.118;11.436;2022-08-19T13:41:57;12.68;;;7.30;;
29570;SDS011;16814;52.118;11.436;2022-08-19T13:44:26;13.35;;;7.72;;
29570;SDS011;16814;52.118;11.436;2022-08-19T13:47:03;13.38;;;7.88;;
29570;SDS011;16814;52.118;11.436;2022-08-19T13:49:34;12.33;;;8.50;;
29570;SDS011;16814;52.118;11.436;2022-08-19T13:52:01;15.15;;;7.72;;
29570;SDS011;16814;52.118;11.436;2022-08-19T13:54:29;11.68;;;8.27;;
29570;SDS011;16814;52.118;11.436;2022-08-19T13:56:56;13.70;;;8.82;;
29570;SDS011;16814;52.118;11.436;2022-08-19T13:59:23;10.27;;;7.33;;
29570;SDS011;16814;52.118;11.436;2022-08-19T14:01:51;11.43;;;7.68;;
29570;SDS011;16814;52.118;11.436;2022-08-19T14:04:18;13.13;;;7.87;;
29570;SDS011;16814;52.118;11.436;2022-08-19T14:06:44;11.05;;;8.00;;
29570;SDS011;16814;52.118;11.436;2022-08-19T14:09:12;13.13;;;8.30;;
29570;SDS011;16814;52.118;11.436;2022-08-19T14:11:39;11.90;;;7.82;;
29570;SDS011;16814;52.118;11.436;2022-08-19T14:14:05;12.38;;;8.45;;
29570;SDS011;16814;52.118;11.436;2022-08-19T14:16:31;12.43;;;8.77;;
29570;SDS011;16814;52.118;11.436;2022-08-19T14:18:57;11.47;;;9.07;;
29570;SDS011;16814;52.118;11.436;2022-08-19T14:21:25;11.73;;;8.50;;
29570;SDS011;16814;52.118;11.436;2022-08-19T14:23:51;14.30;;;8.43;;
29570;SDS011;16814;52.118;11.436;2022-08-19T14:26:21;11.18;;;8.20;;
29570;SDS011;16814;52.118;11.436;2022-08-19T14:28:48;9.40;;;7.80;;
29570;SDS011;16814;52.118;11.436;2022-08-19T14:31:16;13.55;;;8.07;;
29570;SDS011;16814;52.118;11.436;2022-08-19T14:33:46;10.82;;;8.18;;